createdAt,value
2019-05-28T00:02:05.947Z,100.00
2019-05-28T00:04:35.734Z,100.00
2019-05-28T00:07:05.510Z,100.00
2019-05-28T00:09:35.326Z,100.00
2019-05-28T00:12:05.290Z,100.00
2019-05-28T00:14:35.100Z,100.00
2019-05-28T00:17:05.064Z,100.00
2019-05-28T00:19:35.019Z,100.00
2019-05-28T00:22:04.848Z,100.00
2019-05-28T00:24:34.907Z,100.00
2019-05-28T00:27:04.785Z,100.00
2019-05-28T00:29:34.604Z,100.00
2019-05-28T00:32:04.745Z,100.00
2019-05-28T00:34:34.518Z,100.00
2019-05-28T00:37:04.449Z,100.00
2019-05-28T00:39:34.388Z,100.00
2019-05-28T00:42:04.298Z,100.00
2019-05-28T00:44:34.269Z,100.00
2019-05-28T00:47:04.179Z,100.00
2019-05-28T00:49:34.048Z,100.00
2019-05-28T00:52:03.955Z,100.00
2019-05-28T00:54:33.915Z,100.00
2019-05-28T00:57:04.074Z,100.00
2019-05-28T00:59:34.895Z,100.00
2019-05-28T01:02:04.910Z,100.00
2019-05-28T01:04:34.671Z,100.00
2019-05-28T01:07:04.887Z,100.00
2019-05-28T01:09:34.660Z,100.00
2019-05-28T01:12:04.593Z,100.00
2019-05-28T01:14:34.323Z,100.00
2019-05-28T01:17:04.453Z,100.00
2019-05-28T01:19:34.261Z,100.00
2019-05-28T01:22:03.984Z,100.00
2019-05-28T01:24:34.054Z,100.00
2019-05-28T01:27:04.232Z,100.00
2019-05-28T01:29:34.036Z,100.00
2019-05-28T01:32:04.096Z,100.00
2019-05-28T01:34:33.867Z,100.00
2019-05-28T01:37:03.576Z,100.00
2019-05-28T01:39:33.455Z,100.00
2019-05-28T01:42:03.110Z,100.00
2019-05-28T01:44:32.937Z,100.00
2019-05-28T01:47:02.938Z,100.00
2019-05-28T01:49:32.764Z,100.00
2019-05-28T01:52:02.685Z,100.00
2019-05-28T01:54:32.640Z,100.00
2019-05-28T01:57:02.519Z,100.00
2019-05-28T01:59:32.439Z,100.00
2019-05-28T02:02:03.599Z,100.00
2019-05-28T02:04:33.484Z,100.00
2019-05-28T02:07:03.408Z,100.00
2019-05-28T02:09:33.360Z,100.00
2019-05-28T02:12:03.250Z,100.00
2019-05-28T02:14:33.097Z,100.00
2019-05-28T02:17:02.875Z,100.00
2019-05-28T02:19:32.791Z,100.00
2019-05-28T02:22:02.872Z,100.00
2019-05-28T02:24:32.731Z,100.00
2019-05-28T02:27:02.645Z,100.00
2019-05-28T02:29:32.519Z,100.00
2019-05-28T02:32:02.479Z,100.00
2019-05-28T02:34:32.296Z,100.00
2019-05-28T02:37:02.373Z,100.00
2019-05-28T02:39:32.112Z,100.00
2019-05-28T02:42:02.030Z,100.00
2019-05-28T02:44:32.714Z,100.00
2019-05-28T02:47:02.475Z,100.00
2019-05-28T02:49:32.412Z,100.00
2019-05-28T02:52:04.785Z,100.00
2019-05-28T02:54:34.702Z,100.00
2019-05-28T02:57:05.208Z,100.00
2019-05-28T02:59:37.810Z,100.00
2019-05-28T03:02:07.515Z,100.00
2019-05-28T03:04:40.266Z,100.00
2019-05-28T03:07:11.119Z,100.00
2019-05-28T03:09:43.292Z,100.00
2019-05-28T03:12:13.296Z,100.00
2019-05-28T03:14:43.169Z,100.00
2019-05-28T03:17:13.593Z,100.00
2019-05-28T03:19:44.505Z,100.00
2019-05-28T03:22:16.186Z,100.00
2019-05-28T03:24:48.185Z,100.00
2019-05-28T03:27:17.950Z,100.00
2019-05-28T03:29:47.759Z,100.00
2019-05-28T03:32:17.522Z,100.00
2019-05-28T03:34:47.319Z,100.00
2019-05-28T03:37:18.808Z,100.00
2019-05-28T03:39:52.552Z,100.00
2019-05-28T03:42:22.480Z,100.00
2019-05-28T03:44:52.182Z,100.00
2019-05-28T03:47:23.297Z,100.00
2019-05-28T03:49:53.458Z,100.00
2019-05-28T03:52:23.275Z,100.00
2019-05-28T03:54:53.347Z,100.00
2019-05-28T03:57:23.085Z,100.00
2019-05-28T03:59:53.009Z,100.00
2019-05-28T04:02:24.071Z,100.00
2019-05-28T04:04:54.071Z,100.00
2019-05-28T04:07:23.809Z,100.00
2019-05-28T04:09:53.758Z,100.00
2019-05-28T04:12:23.618Z,100.00
2019-05-28T04:14:53.616Z,100.00
2019-05-28T04:17:23.399Z,100.00
2019-05-28T04:19:53.183Z,100.00
2019-05-28T04:22:22.902Z,100.00
2019-05-28T04:24:52.619Z,100.00
2019-05-28T04:27:22.396Z,100.00
2019-05-28T04:29:52.246Z,100.00
2019-05-28T04:32:22.180Z,100.00
2019-05-28T04:34:52.123Z,100.00
2019-05-28T04:37:21.973Z,100.00
2019-05-28T04:39:51.939Z,100.00
2019-05-28T04:42:21.919Z,100.00
2019-05-28T04:44:51.778Z,99.47
2019-05-28T04:47:21.521Z,99.41
2019-05-28T04:49:51.367Z,97.92
2019-05-28T04:52:21.347Z,97.42
2019-05-28T04:54:51.282Z,96.28
2019-05-28T04:57:21.321Z,98.32
2019-05-28T04:59:51.177Z,95.27
2019-05-28T05:02:20.951Z,95.86
2019-05-28T05:04:50.972Z,94.17
2019-05-28T05:07:20.945Z,93.58
2019-05-28T05:09:50.793Z,91.76
2019-05-28T05:12:20.999Z,91.16
2019-05-28T05:14:50.814Z,91.05
2019-05-28T05:17:20.657Z,91.94
2019-05-28T05:19:50.582Z,90.07
2019-05-28T05:22:20.452Z,90.27
2019-05-28T05:24:50.176Z,89.08
2019-05-28T05:27:20.024Z,88.40
2019-05-28T05:29:49.783Z,87.07
2019-05-28T05:32:19.653Z,86.64
2019-05-28T05:34:49.467Z,86.33
2019-05-28T05:37:19.440Z,86.03
2019-05-28T05:39:49.412Z,86.11
2019-05-28T05:42:19.418Z,85.53
2019-05-28T05:44:49.328Z,84.82
2019-05-28T05:47:19.345Z,83.27
2019-05-28T05:49:49.097Z,82.80
2019-05-28T05:52:19.208Z,84.18
2019-05-28T05:54:49.000Z,85.96
2019-05-28T05:57:18.952Z,84.70
2019-05-28T05:59:48.818Z,84.59
2019-05-28T06:02:18.436Z,85.86
2019-05-28T06:04:48.325Z,86.72
2019-05-28T06:07:17.978Z,88.49
2019-05-28T06:09:47.954Z,89.86
2019-05-28T06:12:17.789Z,86.91
2019-05-28T06:14:47.820Z,84.98
2019-05-28T06:17:17.668Z,84.97
2019-05-28T06:19:47.535Z,85.56
2019-05-28T06:22:17.156Z,86.47
2019-05-28T06:24:47.019Z,86.23
2019-05-28T06:27:19.354Z,84.70
2019-05-28T06:29:48.458Z,83.65
2019-05-28T06:32:18.455Z,84.41
2019-05-28T06:34:48.350Z,85.05
2019-05-28T06:37:18.193Z,84.65
2019-05-28T06:39:47.792Z,86.63
2019-05-28T06:42:17.807Z,86.06
2019-05-28T06:44:48.706Z,85.39
2019-05-28T06:47:18.430Z,83.83
2019-05-28T06:49:48.177Z,85.76
2019-05-28T06:52:18.102Z,85.42
2019-05-28T06:54:48.161Z,84.65
2019-05-28T06:57:22.659Z,82.52
2019-05-28T06:59:49.496Z,82.97
2019-05-28T07:02:19.454Z,83.48
2019-05-28T07:04:49.390Z,85.32
2019-05-28T07:07:19.345Z,85.93
2019-05-28T07:09:50.308Z,87.40
2019-05-28T07:12:20.109Z,86.32
2019-05-28T07:14:49.864Z,84.55
2019-05-28T07:17:19.684Z,85.41
2019-05-28T07:19:49.541Z,83.53
2019-05-28T07:22:19.145Z,81.88
2019-05-28T07:24:48.813Z,82.61
2019-05-28T07:27:18.600Z,81.35
2019-05-28T07:29:48.639Z,81.35
2019-05-28T07:32:18.488Z,80.57
2019-05-28T07:34:48.022Z,81.44
2019-05-28T07:37:17.725Z,81.17
2019-05-28T07:39:47.695Z,76.02
2019-05-28T07:42:31.784Z,74.22
2019-05-28T07:44:49.212Z,72.77
2019-05-28T07:47:19.135Z,70.22
2019-05-28T07:49:48.899Z,70.67
2019-05-28T07:52:18.795Z,69.47
2019-05-28T07:54:48.810Z,69.34
2019-05-28T07:57:18.725Z,66.92
2019-05-28T07:59:48.544Z,67.99
2019-05-28T08:02:18.551Z,67.68
2019-05-28T08:04:48.378Z,69.56
2019-05-28T08:07:18.069Z,72.49
2019-05-28T08:09:47.836Z,74.10
2019-05-28T08:12:17.784Z,75.59
2019-05-28T08:14:47.517Z,75.67
2019-05-28T08:17:17.354Z,75.72
2019-05-28T08:19:47.295Z,77.13
2019-05-28T08:22:17.170Z,77.22
2019-05-28T08:24:47.125Z,78.89
2019-05-28T08:27:16.939Z,79.81
2019-05-28T08:29:46.733Z,77.71
2019-05-28T08:32:16.647Z,78.50
2019-05-28T08:35:03.854Z,79.25
2019-05-28T08:37:18.119Z,79.18
2019-05-28T08:39:48.011Z,79.50
2019-05-28T08:42:20.873Z,78.01
2019-05-28T08:44:49.613Z,77.96
2019-05-28T08:47:19.721Z,80.13
2019-05-28T08:49:49.575Z,79.95
2019-05-28T08:52:19.447Z,78.19
2019-05-28T08:54:51.274Z,79.85
2019-05-28T08:57:21.297Z,80.09
2019-05-28T08:59:50.935Z,79.66
2019-05-28T09:02:27.779Z,79.04
2019-05-28T09:04:53.474Z,79.77
2019-05-28T09:07:23.244Z,79.44
2019-05-28T09:09:53.183Z,79.26
2019-05-28T09:12:22.966Z,79.47
2019-05-28T09:14:56.208Z,78.53
2019-05-28T09:17:24.255Z,77.78
2019-05-28T09:19:54.083Z,78.16
2019-05-28T09:22:26.519Z,77.76
2019-05-28T09:24:56.656Z,77.08
2019-05-28T09:27:26.381Z,78.37
2019-05-28T09:29:56.238Z,76.99
2019-05-28T09:32:26.176Z,76.80
2019-05-28T09:34:55.811Z,76.79
2019-05-28T09:37:25.479Z,77.40
2019-05-28T09:39:55.247Z,76.78
2019-05-28T09:42:25.046Z,76.51
2019-05-28T09:44:54.940Z,77.40
2019-05-28T09:47:24.918Z,78.23
2019-05-28T09:49:56.345Z,79.15
2019-05-28T09:52:26.289Z,81.03
2019-05-28T09:54:56.194Z,79.52
2019-05-28T09:57:26.169Z,77.21
2019-05-28T09:59:56.205Z,77.98
2019-05-28T10:02:26.218Z,78.93
2019-05-28T10:04:56.164Z,78.54
2019-05-28T10:07:25.858Z,79.28
2019-05-28T10:09:55.682Z,78.56
2019-05-28T10:12:25.660Z,77.70
2019-05-28T10:14:55.629Z,76.68
2019-05-28T10:17:25.503Z,76.49
2019-05-28T10:19:55.280Z,78.60
2019-05-28T10:22:25.079Z,78.27
2019-05-28T10:24:55.170Z,77.21
2019-05-28T10:27:25.222Z,77.29
2019-05-28T10:29:55.148Z,78.19
2019-05-28T10:32:25.003Z,79.02
2019-05-28T10:35:03.595Z,77.70
2019-05-28T10:37:26.402Z,80.60
2019-05-28T10:39:56.490Z,80.78
2019-05-28T10:42:26.263Z,78.75
2019-05-28T10:44:56.267Z,77.76
2019-05-28T10:47:26.138Z,76.77
2019-05-28T10:49:56.004Z,78.11
2019-05-28T10:52:25.976Z,80.02
2019-05-28T10:54:55.839Z,79.95
2019-05-28T10:57:25.537Z,79.18
2019-05-28T10:59:57.347Z,78.79
2019-05-28T11:02:27.248Z,78.79
2019-05-28T11:04:57.324Z,77.29
2019-05-28T11:07:27.197Z,77.83
2019-05-28T11:09:57.081Z,76.76
2019-05-28T11:12:27.014Z,77.60
2019-05-28T11:14:56.969Z,76.51
2019-05-28T11:17:26.739Z,76.42
2019-05-28T11:19:56.626Z,77.73
2019-05-28T11:22:26.323Z,76.90
2019-05-28T11:24:56.114Z,78.05
2019-05-28T11:27:25.994Z,78.45
2019-05-28T11:29:56.009Z,80.04
2019-05-28T11:32:25.868Z,79.18
2019-05-28T11:34:55.743Z,79.21
2019-05-28T11:37:25.655Z,80.11
2019-05-28T11:39:55.577Z,81.14
2019-05-28T11:42:25.499Z,80.46
2019-05-28T11:44:55.326Z,81.65
2019-05-28T11:47:25.068Z,81.27
2019-05-28T11:49:54.817Z,79.16
2019-05-28T11:52:24.813Z,77.63
2019-05-28T11:54:54.565Z,76.76
2019-05-28T11:57:24.266Z,77.55
2019-05-28T11:59:54.261Z,74.47
2019-05-28T12:02:24.117Z,73.64
2019-05-28T12:04:55.998Z,73.87
2019-05-28T12:07:26.664Z,74.69
2019-05-28T12:09:57.859Z,74.79
2019-05-28T12:12:27.654Z,74.34
2019-05-28T12:14:57.486Z,71.29
2019-05-28T12:17:41.932Z,68.36
2019-05-28T12:20:00.129Z,69.04
2019-05-28T12:22:29.909Z,65.84
2019-05-28T12:24:59.847Z,62.48
2019-05-28T12:27:29.718Z,63.29
2019-05-28T12:29:59.624Z,62.20
2019-05-28T12:32:29.290Z,63.13
2019-05-28T12:34:59.185Z,63.80
2019-05-28T12:37:46.261Z,63.76
2019-05-28T12:40:00.611Z,61.74
2019-05-28T12:42:30.347Z,61.60
2019-05-28T12:45:09.531Z,60.80
2019-05-28T12:47:31.464Z,61.35
2019-05-28T12:50:17.873Z,60.19
2019-05-28T12:52:32.708Z,63.21
2019-05-28T12:55:02.561Z,64.41
2019-05-28T12:57:32.307Z,63.65
2019-05-28T13:00:02.266Z,62.66
2019-05-28T13:02:32.220Z,60.31
2019-05-28T13:05:01.956Z,56.60
2019-05-28T13:07:31.763Z,58.87
2019-05-28T13:10:01.694Z,60.75
2019-05-28T13:12:31.582Z,62.26
2019-05-28T13:15:01.311Z,60.89
2019-05-28T13:17:32.789Z,63.24
2019-05-28T13:20:02.664Z,63.78
2019-05-28T13:22:32.558Z,61.78
2019-05-28T13:25:02.330Z,60.47
2019-05-28T13:27:32.215Z,61.73
2019-05-28T13:30:02.425Z,62.15
2019-05-28T13:32:32.942Z,64.19
2019-05-28T13:35:02.938Z,65.73
2019-05-28T13:37:32.669Z,63.73
2019-05-28T13:40:02.545Z,61.66
2019-05-28T13:42:32.356Z,61.60
2019-05-28T13:45:02.318Z,62.19
2019-05-28T13:47:33.994Z,61.44
2019-05-28T13:50:03.666Z,64.33
2019-05-28T13:52:33.381Z,65.31
2019-05-28T13:55:03.231Z,67.15
2019-05-28T13:57:33.026Z,66.71
2019-05-28T14:00:02.914Z,68.36
2019-05-28T14:02:32.731Z,68.36
2019-05-28T14:05:02.696Z,65.65
2019-05-28T14:07:32.541Z,63.82
2019-05-28T14:10:02.146Z,66.84
2019-05-28T14:12:32.123Z,70.50
2019-05-28T14:15:02.022Z,67.42
2019-05-28T14:17:31.989Z,67.49
2019-05-28T14:20:01.899Z,66.46
2019-05-28T14:22:34.376Z,70.09
2019-05-28T14:25:03.169Z,72.07
2019-05-28T14:27:33.102Z,72.69
2019-05-28T14:30:02.724Z,71.69
2019-05-28T14:32:32.739Z,71.11
2019-05-28T14:35:02.445Z,73.12
2019-05-28T14:37:32.159Z,75.66
2019-05-28T14:40:02.026Z,73.41
2019-05-28T14:42:31.821Z,71.29
2019-05-28T14:45:01.846Z,70.64
2019-05-28T14:47:31.735Z,72.94
2019-05-28T14:50:01.520Z,73.94
2019-05-28T14:52:31.324Z,74.50
2019-05-28T14:55:01.191Z,75.67
2019-05-28T14:57:31.209Z,76.22
2019-05-28T15:00:01.074Z,78.08
2019-05-28T15:02:31.080Z,80.08
2019-05-28T15:05:00.976Z,80.68
2019-05-28T15:07:30.757Z,80.39
2019-05-28T15:10:00.726Z,81.02
2019-05-28T15:12:30.590Z,83.20
2019-05-28T15:15:00.213Z,83.51
2019-05-28T15:17:31.298Z,83.84
2019-05-28T15:20:00.959Z,82.62
2019-05-28T15:22:30.873Z,81.42
2019-05-28T15:25:00.834Z,80.77
2019-05-28T15:27:30.723Z,82.01
2019-05-28T15:30:00.567Z,79.25
2019-05-28T15:32:30.352Z,80.04
2019-05-28T15:35:00.322Z,82.77
2019-05-28T15:37:30.083Z,80.37
2019-05-28T15:39:59.883Z,80.61
2019-05-28T15:42:29.769Z,82.59
2019-05-28T15:44:59.502Z,81.36
2019-05-28T15:47:29.257Z,82.96
2019-05-28T15:49:59.317Z,84.70
2019-05-28T15:52:29.053Z,85.11
2019-05-28T15:54:58.972Z,86.89
2019-05-28T15:57:30.159Z,87.08
2019-05-28T15:59:59.950Z,88.67
2019-05-28T16:02:29.649Z,90.28
2019-05-28T16:04:59.616Z,89.08
2019-05-28T16:07:29.388Z,89.41
2019-05-28T16:09:59.297Z,87.66
2019-05-28T16:12:29.284Z,88.26
2019-05-28T16:14:58.939Z,87.91
2019-05-28T16:17:28.743Z,87.92
2019-05-28T16:19:59.637Z,89.44
2019-05-28T16:22:29.622Z,91.03
2019-05-28T16:24:59.443Z,90.40
2019-05-28T16:27:29.602Z,91.43
2019-05-28T16:29:59.373Z,95.40
2019-05-28T16:32:29.528Z,98.67
2019-05-28T16:35:00.775Z,97.87
2019-05-28T16:37:30.542Z,99.84
2019-05-28T16:40:14.035Z,100.00
2019-05-28T16:42:32.097Z,100.00
2019-05-28T16:45:01.889Z,100.00
2019-05-28T16:47:31.862Z,100.00
2019-05-28T16:50:02.057Z,100.00
2019-05-28T16:52:32.139Z,100.00
2019-05-28T16:55:01.899Z,100.00
2019-05-28T16:57:31.677Z,100.00
2019-05-28T17:00:01.349Z,100.00
2019-05-28T17:02:31.273Z,100.00
2019-05-28T17:05:01.220Z,100.00
2019-05-28T17:07:31.186Z,100.00
2019-05-28T17:10:01.229Z,100.00
2019-05-28T17:12:31.284Z,100.00
2019-05-28T17:15:01.037Z,100.00
2019-05-28T17:17:30.901Z,100.00
2019-05-28T17:20:00.564Z,100.00
2019-05-28T17:22:30.387Z,100.00
2019-05-28T17:25:00.374Z,100.00
2019-05-28T17:27:30.133Z,100.00
2019-05-28T17:30:15.911Z,100.00
2019-05-28T17:32:31.562Z,100.00
2019-05-28T17:35:01.524Z,100.00
2019-05-28T17:37:31.332Z,100.00
2019-05-28T17:40:01.274Z,100.00
2019-05-28T17:42:31.355Z,100.00
2019-05-28T17:45:01.338Z,100.00
2019-05-28T17:47:31.240Z,100.00
2019-05-28T17:50:01.225Z,100.00
2019-05-28T17:52:31.088Z,100.00
2019-05-28T17:55:00.957Z,100.00
2019-05-28T17:57:30.872Z,100.00
2019-05-28T18:00:00.825Z,100.00
2019-05-28T18:02:30.809Z,100.00
2019-05-28T18:05:00.635Z,100.00
2019-05-28T18:07:30.587Z,100.00
2019-05-28T18:10:00.454Z,100.00
2019-05-28T18:12:30.262Z,100.00
2019-05-28T18:15:00.246Z,100.00
2019-05-28T18:17:30.106Z,100.00
2019-05-28T18:20:00.080Z,100.00
2019-05-28T18:22:29.894Z,100.00
2019-05-28T18:24:59.737Z,100.00
2019-05-28T18:27:30.683Z,100.00
2019-05-28T18:30:00.613Z,100.00
2019-05-28T18:32:30.530Z,100.00
2019-05-28T18:35:00.525Z,100.00
2019-05-28T18:37:30.264Z,100.00
2019-05-28T18:39:59.962Z,100.00
2019-05-28T18:42:29.762Z,100.00
2019-05-28T18:44:59.511Z,100.00
2019-05-28T18:47:29.448Z,100.00
2019-05-28T18:50:03.441Z,100.00
2019-05-28T18:52:31.054Z,100.00
2019-05-28T18:55:00.818Z,100.00
2019-05-28T18:57:30.726Z,100.00
2019-05-28T19:00:00.801Z,100.00
2019-05-28T19:02:30.644Z,100.00
2019-05-28T19:05:00.456Z,100.00
2019-05-28T19:07:30.580Z,100.00
2019-05-28T19:10:00.436Z,100.00
2019-05-28T19:12:30.214Z,100.00
2019-05-28T19:15:00.150Z,100.00
2019-05-28T19:17:31.322Z,100.00
2019-05-28T19:20:01.037Z,100.00
2019-05-28T19:22:30.806Z,100.00
2019-05-28T19:25:00.680Z,100.00
2019-05-28T19:27:30.325Z,100.00
2019-05-28T19:30:00.150Z,100.00
2019-05-28T19:32:30.071Z,100.00
2019-05-28T19:34:59.886Z,100.00
2019-05-28T19:37:29.892Z,100.00
2019-05-28T19:40:01.061Z,100.00
2019-05-28T19:42:30.859Z,100.00
2019-05-28T19:45:00.770Z,100.00
2019-05-28T19:47:30.738Z,100.00
2019-05-28T19:50:00.604Z,100.00
2019-05-28T19:52:30.412Z,100.00
2019-05-28T19:55:00.181Z,100.00
2019-05-28T19:57:29.940Z,100.00
2019-05-28T19:59:59.945Z,100.00
2019-05-28T20:02:30.813Z,100.00
2019-05-28T20:05:00.615Z,100.00
2019-05-28T20:07:31.197Z,100.00
2019-05-28T20:10:00.953Z,100.00
2019-05-28T20:12:30.977Z,100.00
2019-05-28T20:15:00.924Z,100.00
2019-05-28T20:17:30.781Z,100.00
2019-05-28T20:20:00.644Z,100.00
2019-05-28T20:22:30.672Z,100.00
2019-05-28T20:25:00.526Z,100.00
2019-05-28T20:27:30.402Z,100.00
2019-05-28T20:30:01.015Z,100.00
2019-05-28T20:32:31.956Z,100.00
2019-05-28T20:35:01.815Z,100.00
2019-05-28T20:37:31.581Z,100.00
2019-05-28T20:40:02.237Z,100.00
2019-05-28T20:42:32.052Z,100.00
2019-05-28T20:45:02.450Z,100.00
2019-05-28T20:47:32.449Z,100.00
2019-05-28T20:50:05.618Z,100.00
2019-05-28T20:52:33.980Z,100.00
2019-05-28T20:55:03.847Z,100.00
2019-05-28T20:57:33.375Z,100.00
2019-05-28T21:00:03.194Z,100.00
2019-05-28T21:02:33.255Z,100.00
2019-05-28T21:05:03.294Z,100.00
2019-05-28T21:07:33.040Z,100.00
2019-05-28T21:10:04.339Z,100.00
2019-05-28T21:12:43.179Z,100.00
2019-05-28T21:15:06.297Z,100.00
2019-05-28T21:17:38.507Z,100.00
2019-05-28T21:20:08.377Z,100.00
2019-05-28T21:22:38.232Z,100.00
2019-05-28T21:25:08.706Z,100.00
2019-05-28T21:27:38.664Z,100.00
2019-05-28T21:30:09.212Z,100.00
2019-05-28T21:32:39.081Z,100.00
2019-05-28T21:35:09.428Z,100.00
2019-05-28T21:37:39.407Z,100.00
2019-05-28T21:40:09.641Z,100.00
2019-05-28T21:42:39.437Z,100.00
2019-05-28T21:45:09.898Z,100.00
2019-05-28T21:47:39.745Z,100.00
2019-05-28T21:50:11.376Z,100.00
2019-05-28T21:52:41.184Z,100.00
2019-05-28T21:55:11.295Z,100.00
2019-05-28T21:57:41.057Z,100.00
2019-05-28T22:00:16.231Z,100.00
2019-05-28T22:02:45.923Z,100.00
2019-05-28T22:05:16.180Z,100.00
2019-05-28T22:07:46.008Z,100.00
2019-05-28T22:10:15.958Z,100.00
2019-05-28T22:12:45.844Z,100.00
2019-05-28T22:15:15.965Z,100.00
2019-05-28T22:17:45.703Z,100.00
2019-05-28T22:20:15.820Z,100.00
2019-05-28T22:22:45.561Z,100.00
2019-05-28T22:25:15.454Z,100.00
2019-05-28T22:27:45.253Z,100.00
2019-05-28T22:30:15.619Z,100.00
2019-05-28T22:32:45.512Z,100.00
2019-05-28T22:35:15.419Z,100.00
2019-05-28T22:37:45.405Z,100.00
2019-05-28T22:40:15.659Z,100.00
2019-05-28T22:42:45.466Z,100.00
2019-05-28T22:45:15.649Z,100.00
2019-05-28T22:47:46.216Z,100.00
2019-05-28T22:50:22.808Z,100.00
2019-05-28T22:52:47.999Z,100.00
2019-05-28T22:55:18.038Z,100.00
2019-05-28T22:57:47.760Z,100.00
2019-05-28T23:00:19.471Z,100.00
2019-05-28T23:02:49.164Z,100.00
2019-05-28T23:05:19.037Z,100.00
2019-05-28T23:07:48.829Z,100.00
2019-05-28T23:10:18.784Z,100.00
2019-05-28T23:12:48.661Z,100.00
2019-05-28T23:15:18.577Z,100.00
2019-05-28T23:17:48.553Z,100.00
2019-05-28T23:20:18.608Z,100.00
2019-05-28T23:22:48.612Z,100.00
2019-05-28T23:25:18.476Z,100.00
2019-05-28T23:27:48.369Z,100.00
2019-05-28T23:30:24.908Z,100.00
2019-05-28T23:32:51.815Z,100.00
2019-05-28T23:35:21.735Z,100.00
2019-05-28T23:37:51.605Z,100.00
2019-05-28T23:40:21.773Z,100.00
2019-05-28T23:42:51.468Z,100.00
2019-05-28T23:45:21.446Z,100.00
2019-05-28T23:47:51.211Z,100.00
2019-05-28T23:50:21.229Z,100.00
2019-05-28T23:52:51.125Z,100.00
2019-05-28T23:55:20.963Z,100.00
2019-05-28T23:57:50.881Z,100.00
